Bradshaw AFB, HI

1:59 PM HST on August 25, 2016 (GMT -1000)
Bradshaw Army Air Field | | Change Station

Elev 6191 ft 19.76 °N, 155.55 °W | Updated 1 hour ago

Overcast
Overcast
70 °F
Feels Like 70 °F
N
12
Wind Variable Wind from WSW
Gusts 20 mph

Today
High -- | Low -- °F
--% Chance of Precip.
Yesterday
High -- | Low -- °F
Precip. -- in
Pressure 30.04 in
Visibility 10.0 miles
Clouds Overcast 4500 ft
Dew Point 56 °F
Humidity 63%
Rainfall 0.00 in
Snow Depth Not available.
6:05 AM 6:42 PM
Last Quarter, 40% visible
METAR PHSF 252256Z AUTO 25010G17KT 10SM OVC045 21/14 A3039 RMK AO2 SLP170 T02090136 $
Pressure 30.04 in
Visibility 10.0 miles
Clouds Overcast 4500 ft
Dew Point 56 °F
Humidity 63%
Rainfall 0.00 in
Snow Depth Not available.
6:05 AM 6:42 PM
Last Quarter, 40% visible
METAR PHSF 252256Z AUTO 25010G17KT 10SM OVC045 21/14 A3039 RMK AO2 SLP170 T02090136 $

10-Day Weather Forecast

Almanac

Astronomy

Aug. 25, 2016 Rise Set
Actual Time
Civil Twilight
Nautical Twilight
Astronomical Twilight
Moon
Length of Visible Light
Length of Day
Tomorrow will be .
, % of the Moon is Illuminated

Today's Extremes

State Highs State Lows

Community

WunderPhotos

Upload Photos

1,934,967 photos uploaded!

WunderBlog® & News

Nearby

Air Quality

  Air Quality AQ Index Pollutant
Not available.

Snow Depth

Station Depth Elevation

Earthquake Activity

City Distance Mag. Time & Date
Minimum magnitude displayed is 2.5.

Coastal Water Temperatures

Place Temperature

Stations

Nearby Weather Stations

Station Location Temp. Windchill Dew Point Humidity Wind Precip. Elev Updated Type
                   

Watches & Warnings

There are currently no watches in effect.